Time;durP1;ratioP1;P1;durP2;ratioP2;P2;SDS_P1;SDS_P2;PMS_P1;PMS_P2;Temp;Humidity;BMP_temperature;BMP_pressure;BME280_temperature;BME280_humidity;BME280_pressure;Samples;Min_cycle;Max_cycle;Signal;HPM_P1;HPM_P2
2022/06/21 00:00:37;;;;;;;4.90;1.77;;;12.60;1.00;;;;;;5033140;28;20196;-72
2022/06/21 00:03:09;;;;;;;4.13;1.80;;;12.60;1.00;;;;;;5033455;28;20534;-74
2022/06/21 00:05:38;;;;;;;4.70;1.93;;;12.50;88.50;;;;;;5015470;28;20223;-72
2022/06/21 00:08:10;;;;;;;2.90;2.30;;;12.50;54.10;;;;;;5033135;28;20696;-72
2022/06/21 00:10:36;;;;;;;2.53;1.70;;;12.50;1.00;;;;;;5015244;28;20739;-73
2022/06/21 00:13:07;;;;;;;3.07;1.70;;;12.40;1.00;;;;;;5033115;28;20172;-72
2022/06/21 00:15:32;;;;;;;2.80;1.63;;;12.40;99.90;;;;;;5015591;28;20549;-72
2022/06/21 00:17:58;;;;;;;3.13;1.70;;;12.40;99.90;;;;;;5015213;28;20172;-73
2022/06/21 00:20:25;;;;;;;2.23;1.97;;;12.40;62.30;;;;;;5032858;28;20212;-72
2022/06/21 00:22:51;;;;;;;5.93;2.03;;;12.40;1.00;;;;;;5033062;28;20509;-72
2022/06/21 00:25:21;;;;;;;6.40;2.07;;;12.30;99.90;;;;;;5032928;28;20176;-74
2022/06/21 00:27:48;;;;;;;5.67;1.43;;;12.20;99.90;;;;;;5032866;28;20172;-72
2022/06/21 00:30:14;;;;;;;2.57;1.57;;;12.20;99.90;;;;;;5015085;28;20196;-73
2022/06/21 00:32:41;;;;;;;3.37;1.53;;;12.20;1.00;;;;;;5014310;28;20176;-72
2022/06/21 00:35:13;;;;;;;3.87;1.50;;;12.20;99.90;;;;;;5032916;28;20778;-72
2022/06/21 00:37:40;;;;;;;3.37;1.60;;;12.10;38.50;;;;;;5015011;28;20168;-72
2022/06/21 00:40:26;;;;;;;6.60;1.50;;;12.00;99.90;;;;;;5014825;28;20569;-72
2022/06/21 00:43:00;;;;;;;1.97;1.60;;;12.00;99.90;;;;;;5014827;28;20176;-73
2022/06/21 00:45:36;;;;;;;2.57;1.57;;;12.00;99.90;;;;;;5032979;28;20167;-73
2022/06/21 00:48:33;;;;;;;1.70;1.60;;;11.90;99.90;;;;;;5032649;28;20166;-72
2022/06/21 00:51:25;;;;;;;2.67;1.67;;;11.90;99.90;;;;;;5032452;28;20193;-73
2022/06/21 00:53:56;;;;;;;2.60;1.50;;;11.90;99.90;;;;;;5032499;28;20192;-72
2022/06/21 00:56:31;;;;;;;4.70;2.10;;;11.90;99.90;;;;;;5014953;28;20650;-72
2022/06/21 00:58:57;;;;;;;1.97;1.53;;;11.80;99.90;;;;;;5032633;28;20533;-73
2022/06/21 01:01:29;;;;;;;3.10;1.77;;;11.80;99.90;;;;;;5014795;28;20196;-73
2022/06/21 01:04:04;;;;;;;2.93;1.77;;;11.70;1.00;;;;;;5032518;28;20180;-72
2022/06/21 01:06:35;;;;;;;2.90;2.00;;;11.70;1.00;;;;;;5032507;28;20200;-73
2022/06/21 01:09:05;;;;;;;4.27;2.10;;;11.60;1.00;;;;;;5032639;28;20272;-72
2022/06/21 01:11:40;;;;;;;2.20;1.87;;;11.50;1.00;;;;;;5032124;28;20196;-73
2022/06/21 01:14:08;;;;;;;2.10;1.77;;;11.50;1.00;;;;;;5032277;28;20658;-72
2022/06/21 01:16:35;;;;;;;3.40;2.20;;;11.50;1.00;;;;;;5014542;28;20199;-73
2022/06/21 01:19:07;;;;;;;3.23;2.33;;;11.40;1.00;;;;;;5032319;28;20646;-72
2022/06/21 01:21:34;;;;;;;2.83;2.20;;;11.30;1.00;;;;;;5032369;28;20205;-72
2022/06/21 01:24:05;;;;;;;5.47;1.63;;;11.30;1.00;;;;;;5056741;22;20228;-74
2022/06/21 01:26:53;;;;;;;7.97;2.63;;;11.20;1.00;;;;;;5032052;28;20243;-75
2022/06/21 01:29:21;;;;;;;3.20;1.50;;;11.20;1.00;;;;;;5030730;28;20587;-75
2022/06/21 01:31:48;;;;;;;4.60;1.93;;;11.20;1.00;;;;;;5032428;28;20203;-75
2022/06/21 01:34:22;;;;;;;2.90;1.90;;;11.20;1.00;;;;;;5031851;28;20284;-75
2022/06/21 01:36:52;;;;;;;4.90;2.20;;;11.10;1.00;;;;;;5032313;28;20160;-75
2022/06/21 01:39:24;;;;;;;2.73;2.07;;;11.10;1.00;;;;;;5032854;28;20506;-75
2022/06/21 01:42:04;;;;;;;5.50;2.13;;;11.10;1.00;;;;;;5032210;28;20607;-74
2022/06/21 01:44:37;;;;;;;3.90;2.43;;;11.10;1.00;;;;;;5034047;28;20565;-75
2022/06/21 01:47:08;;;;;;;2.73;1.83;;;11.10;1.00;;;;;;5035854;28;20161;-74
2022/06/21 01:49:36;;;;;;;3.80;2.20;;;11.10;1.00;;;;;;5035480;28;20602;-74
2022/06/21 01:52:09;;;;;;;4.33;2.03;;;11.00;1.00;;;;;;5035646;28;20233;-74
2022/06/21 01:54:42;;;;;;;3.13;1.97;;;11.10;1.00;;;;;;5035279;28;20200;-75
2022/06/21 01:57:09;;;;;;;5.27;2.07;;;11.00;1.00;;;;;;5035853;28;20187;-75
2022/06/21 01:59:40;;;;;;;4.77;2.27;;;11.00;1.00;;;;;;5017709;28;20168;-75
2022/06/21 02:02:11;;;;;;;3.17;2.03;;;11.00;1.00;;;;;;5035650;28;20561;-75
2022/06/21 02:04:43;;;;;;;4.20;2.33;;;11.00;1.00;;;;;;5017388;28;20254;-75
2022/06/21 02:07:14;;;;;;;5.23;2.10;;;11.00;1.00;;;;;;5034302;28;20156;-75
2022/06/21 02:09:46;;;;;;;3.30;1.90;;;11.00;1.00;;;;;;5034873;28;20240;-75
2022/06/21 02:12:14;;;;;;;2.90;2.10;;;11.00;1.00;;;;;;5035335;28;20255;-75
2022/06/21 02:14:53;;;;;;;3.30;2.07;;;10.90;1.00;;;;;;5035150;28;20250;-73
2022/06/21 02:17:26;;;;;;;3.50;2.30;;;10.90;1.00;;;;;;5035495;28;20187;-75
2022/06/21 02:20:07;;;;;;;3.60;2.17;;;10.90;1.00;;;;;;5035217;28;20165;-75
2022/06/21 02:22:34;;;;;;;5.30;2.70;;;10.80;1.00;;;;;;5035000;28;20234;-74
2022/06/21 02:25:01;;;;;;;3.40;2.43;;;10.80;1.00;;;;;;5034768;28;20215;-74
2022/06/21 02:27:33;;;;;;;3.23;2.43;;;10.80;1.00;;;;;;5034760;28;20192;-75
2022/06/21 02:30:03;;;;;;;3.17;2.40;;;10.70;1.00;;;;;;5016998;28;20677;-75
2022/06/21 02:32:33;;;;;;;2.77;2.20;;;10.70;1.00;;;;;;5034648;28;20214;-74
2022/06/21 02:35:08;;;;;;;3.17;2.27;;;10.70;1.00;;;;;;5034623;28;20193;-75
2022/06/21 02:37:35;;;;;;;4.00;2.37;;;10.60;1.00;;;;;;5016829;28;20179;-74
2022/06/21 02:40:05;;;;;;;2.87;2.00;;;10.50;1.00;;;;;;5016692;28;20528;-75
2022/06/21 02:42:33;;;;;;;4.20;2.10;;;10.50;1.00;;;;;;5034451;28;20168;-74
2022/06/21 02:45:17;;;;;;;6.47;2.10;;;10.50;1.00;;;;;;5034542;28;20191;-75
2022/06/21 02:47:45;;;;;;;2.50;2.30;;;10.50;1.00;;;;;;5034561;28;20153;-75
2022/06/21 02:50:32;;;;;;;8.00;2.10;;;10.50;1.00;;;;;;5034442;28;20172;-75
2022/06/21 02:53:00;;;;;;;3.63;2.33;;;10.40;1.00;;;;;;5016723;28;20630;-75
2022/06/21 02:55:38;;;;;;;2.20;1.87;;;10.40;1.00;;;;;;5015703;28;20290;-75
2022/06/21 02:58:33;;;;;;;5.40;2.27;;;10.40;41.20;;;;;;5016439;28;20617;-75
2022/06/21 03:01:04;;;;;;;3.70;2.33;;;10.40;45.70;;;;;;5020678;28;20192;-75
2022/06/21 03:03:31;;;;;;;2.63;2.03;;;10.40;64.70;;;;;;5036534;28;20200;-74
2022/06/21 03:06:00;;;;;;;2.93;2.10;;;10.30;98.20;;;;;;5036785;28;20179;-74
2022/06/21 03:08:29;;;;;;;3.73;2.33;;;10.30;99.90;;;;;;5016616;28;20181;-75
2022/06/21 03:10:56;;;;;;;4.20;2.10;;;10.20;99.90;;;;;;5034269;28;20251;-75
2022/06/21 03:13:28;;;;;;;2.53;2.33;;;10.20;99.90;;;;;;5033831;28;20255;-75
2022/06/21 03:16:00;;;;;;;2.70;2.23;;;10.20;99.90;;;;;;5016146;28;20527;-75
2022/06/21 03:18:35;;;;;;;3.23;2.27;;;10.20;99.90;;;;;;5034022;28;20654;-75
2022/06/21 03:21:04;;;;;;;6.00;2.60;;;10.10;99.90;;;;;;5033976;28;20676;-74
2022/06/21 03:23:31;;;;;;;5.53;2.10;;;10.10;99.90;;;;;;5015780;28;20763;-75
2022/06/21 03:25:59;;;;;;;2.80;2.37;;;10.10;99.90;;;;;;5015991;28;20631;-74
2022/06/21 03:28:41;;;;;;;3.07;2.33;;;10.10;99.90;;;;;;5015845;28;20318;-75
2022/06/21 03:31:30;;;;;;;4.47;2.53;;;10.10;99.90;;;;;;5015817;28;20180;-75
2022/06/21 03:34:03;;;;;;;3.53;2.40;;;10.10;99.90;;;;;;5033455;28;20203;-75
2022/06/21 03:36:29;;;;;;;5.37;2.83;;;10.10;99.90;;;;;;5015798;28;20196;-75
2022/06/21 03:39:01;;;;;;;3.57;2.60;;;10.10;99.90;;;;;;5033999;28;20183;-75
2022/06/21 03:41:45;;;;;;;4.97;2.50;;;10.10;99.90;;;;;;5033755;28;20167;-75
2022/06/21 03:44:34;;;;;;;5.47;2.57;;;10.10;99.90;;;;;;5033275;28;20196;-75
2022/06/21 03:47:05;;;;;;;3.70;2.47;;;10.10;99.90;;;;;;5033348;28;20171;-75
2022/06/21 03:49:49;;;;;;;5.20;2.90;;;10.10;99.90;;;;;;5033260;28;20180;-74
2022/06/21 03:52:42;;;;;;;3.90;3.10;;;10.10;99.90;;;;;;5033587;28;20160;-75
2022/06/21 03:55:25;;;;;;;7.10;3.00;;;10.10;99.90;;;;;;5033134;28;20290;-75
2022/06/21 03:58:05;;;;;;;6.47;2.97;;;10.20;99.90;;;;;;5033475;28;20159;-75
2022/06/21 04:00:38;;;;;;;5.40;3.27;;;10.20;99.90;;;;;;5033437;28;20587;-75
2022/06/21 04:03:12;;;;;;;5.80;3.07;;;10.20;99.90;;;;;;5033345;28;20157;-75
2022/06/21 04:05:49;;;;;;;4.63;2.93;;;10.20;99.90;;;;;;5033225;28;20167;-76
2022/06/21 04:08:49;;;;;;;5.87;3.23;;;10.20;99.90;;;;;;5014436;28;20164;-75
2022/06/21 04:11:59;;;;;;;7.47;2.67;;;10.20;99.90;;;;;;5032652;28;20180;-76
2022/06/21 04:14:42;;;;;;;3.83;3.13;;;10.20;99.90;;;;;;4962503;28;20302;-75
2022/06/21 04:17:31;;;;;;;6.27;3.07;;;10.30;99.90;;;;;;5033231;28;20243;-75
2022/06/21 04:20:09;;;;;;;6.10;3.10;;;10.30;99.90;;;;;;5033126;28;20167;-76
2022/06/21 04:22:41;;;;;;;3.20;2.90;;;10.30;99.90;;;;;;5032904;28;20160;-75
2022/06/21 04:25:45;;;;;;;7.63;3.03;;;10.30;99.90;;;;;;5032417;28;20215;-76
2022/06/21 04:28:24;;;;;;;4.13;2.30;;;10.30;99.90;;;;;;5011029;28;20249;-76
2022/06/21 04:31:19;;;;;;;5.97;2.97;;;10.30;99.90;;;;;;5033065;28;20160;-76
2022/06/21 04:33:55;;;;;;;6.63;2.87;;;10.40;99.90;;;;;;5032408;28;20223;-75
2022/06/21 04:36:37;;;;;;;4.20;3.20;;;10.40;99.90;;;;;;5032724;28;20649;-76
2022/06/21 04:39:08;;;;;;;4.37;2.53;;;10.40;99.90;;;;;;5015890;28;20165;-75
2022/06/21 04:41:42;;;;;;;4.20;2.47;;;10.40;99.90;;;;;;5033884;28;20222;-75
2022/06/21 04:44:30;;;;;;;4.93;3.00;;;10.40;99.90;;;;;;5015256;28;20203;-75
2022/06/21 04:47:03;;;;;;;4.87;2.43;;;10.40;99.90;;;;;;5032812;28;20165;-75
2022/06/21 04:49:38;;;;;;;4.37;2.40;;;10.40;99.90;;;;;;5014783;28;20218;-75
2022/06/21 04:52:37;;;;;;;5.77;2.40;;;10.30;99.90;;;;;;5032791;28;20656;-75
2022/06/21 04:55:04;;;;;;;3.67;2.80;;;10.40;99.90;;;;;;5032635;28;20295;-75
2022/06/21 04:57:32;;;;;;;4.10;2.83;;;10.40;99.90;;;;;;5032425;28;20168;-75
2022/06/21 05:00:04;;;;;;;4.40;3.07;;;10.40;99.90;;;;;;5032482;28;20179;-75
2022/06/21 05:02:33;;;;;;;4.30;2.90;;;10.40;99.90;;;;;;5032715;28;20156;-75
2022/06/21 05:05:11;;;;;;;3.47;3.10;;;10.50;99.90;;;;;;5032297;28;20195;-74
2022/06/21 05:07:52;;;;;;;3.07;2.67;;;10.60;99.90;;;;;;5032454;28;20233;-75
2022/06/21 05:10:27;;;;;;;4.60;2.73;;;10.60;99.90;;;;;;5032857;28;20161;-75
2022/06/21 05:12:57;;;;;;;3.70;2.43;;;10.60;99.90;;;;;;5032131;28;20180;-75
2022/06/21 05:15:31;;;;;;;5.60;3.07;;;10.70;99.90;;;;;;5032269;28;20200;-74
2022/06/21 05:18:23;;;;;;;5.30;2.80;;;10.70;99.90;;;;;;5032670;28;20635;-75
2022/06/21 05:20:53;;;;;;;5.60;3.00;;;10.70;99.90;;;;;;5035534;28;20192;-76
2022/06/21 05:23:21;;;;;;;6.63;3.00;;;10.80;99.90;;;;;;5036245;28;20168;-76
2022/06/21 05:25:49;;;;;;;6.47;2.80;;;10.90;99.90;;;;;;5018422;28;20177;-77
2022/06/21 05:28:52;;;;;;;5.83;3.37;;;10.90;99.90;;;;;;5036343;28;20261;-77
2022/06/21 05:31:23;;;;;;;4.23;3.10;;;11.00;99.90;;;;;;5036953;28;20522;-77
2022/06/21 05:33:51;;;;;;;5.03;2.83;;;11.00;99.90;;;;;;5036592;28;20227;-76
2022/06/21 05:36:35;;;;;;;3.97;2.53;;;11.10;99.90;;;;;;5036038;28;20493;-76
2022/06/21 05:39:22;;;;;;;5.27;2.70;;;11.10;99.90;;;;;;5018356;28;20164;-76
2022/06/21 05:41:50;;;;;;;4.13;2.77;;;11.20;99.90;;;;;;5036040;28;20185;-76
2022/06/21 05:44:36;;;;;;;5.97;3.20;;;11.30;99.90;;;;;;5035750;28;20619;-76
2022/06/21 05:47:20;;;;;;;6.93;3.30;;;11.40;99.90;;;;;;5036198;28;20188;-76
2022/06/21 05:49:47;;;;;;;4.23;3.23;;;11.50;99.90;;;;;;5036014;28;20648;-75
2022/06/21 05:52:26;;;;;;;5.87;2.80;;;11.60;99.90;;;;;;5035784;28;20172;-77
2022/06/21 05:55:04;;;;;;;12.20;3.30;;;11.60;99.90;;;;;;5018031;28;20697;-76
2022/06/21 05:58:01;;;;;;;5.20;2.77;;;11.70;99.90;;;;;;5018164;28;20177;-75
2022/06/21 06:00:48;;;;;;;6.97;3.33;;;11.80;99.90;;;;;;5029530;28;20566;-76
2022/06/21 06:03:40;;;;;;;5.73;2.80;;;11.90;99.90;;;;;;5017878;28;20176;-77
2022/06/21 06:06:12;;;;;;;5.73;3.00;;;12.00;99.90;;;;;;5025153;28;20188;-75
2022/06/21 06:08:42;;;;;;;8.53;3.00;;;12.10;99.90;;;;;;5035691;28;20180;-76
2022/06/21 06:11:23;;;;;;;5.20;3.00;;;12.10;99.90;;;;;;5035683;28;20160;-76
2022/06/21 06:13:52;;;;;;;4.37;2.30;;;12.20;99.90;;;;;;5017691;28;20606;-76
2022/06/21 06:16:36;;;;;;;4.97;2.77;;;12.30;99.90;;;;;;5035465;28;20176;-76
2022/06/21 06:19:19;;;;;;;9.37;3.00;;;12.40;99.90;;;;;;5035781;28;20160;-76
2022/06/21 06:21:51;;;;;;;6.37;2.53;;;12.60;99.90;;;;;;5035786;28;20570;-76
2022/06/21 06:24:20;;;;;;;5.07;2.37;;;12.60;99.90;;;;;;5035377;28;20571;-76
2022/06/21 06:26:50;;;;;;;2.93;1.70;;;12.70;99.90;;;;;;5017667;28;20184;-75
2022/06/21 06:29:33;;;;;;;6.77;2.60;;;12.80;99.90;;;;;;5035294;28;20249;-74
2022/06/21 06:32:29;;;;;;;5.10;2.33;;;12.90;99.90;;;;;;5016994;28;20623;-76
2022/06/21 06:34:56;;;;;;;5.37;2.30;;;13.00;99.90;;;;;;5017757;28;20226;-76
2022/06/21 06:37:37;;;;;;;3.07;2.00;;;13.10;99.90;;;;;;5035143;28;20238;-76
2022/06/21 06:40:06;;;;;;;3.67;1.80;;;13.20;99.90;;;;;;5035079;28;20171;-77
2022/06/21 06:42:37;;;;;;;4.30;1.70;;;13.30;99.90;;;;;;5035083;28;20184;-76
2022/06/21 06:45:11;;;;;;;3.27;1.70;;;13.40;99.90;;;;;;5035003;28;20195;-77
2022/06/21 06:47:53;;;;;;;4.53;2.00;;;13.50;99.90;;;;;;5035536;28;20568;-76
2022/06/21 06:50:34;;;;;;;4.93;1.97;;;13.60;50.60;;;;;;5035199;28;20641;-76
2022/06/21 06:53:40;;;;;;;4.63;1.43;;;13.70;1.00;;;;;;5035084;28;20173;-76
2022/06/21 06:56:15;;;;;;;4.13;1.80;;;13.80;1.00;;;;;;4955049;29;20673;-76
2022/06/21 06:58:40;;;;;;;6.40;1.83;;;13.90;99.90;;;;;;5026170;28;20183;-76
2022/06/21 07:01:25;;;;;;;5.57;1.60;;;14.00;99.90;;;;;;5034785;28;20256;-77
2022/06/21 07:03:56;;;;;;;3.80;2.17;;;14.10;1.00;;;;;;5035529;28;20196;-76
2022/06/21 07:06:47;;;;;;;4.17;1.73;;;14.20;1.00;;;;;;5035006;28;20171;-76
2022/06/21 07:09:32;;;;;;;3.47;1.83;;;14.30;1.00;;;;;;5017240;28;20223;-76
2022/06/21 07:12:17;;;;;;;4.77;1.70;;;14.40;1.00;;;;;;5016929;28;20172;-76
2022/06/21 07:14:43;;;;;;;5.43;1.90;;;14.50;1.00;;;;;;5034725;28;20550;-77
2022/06/21 07:17:25;;;;;;;4.23;1.60;;;14.60;99.90;;;;;;5034715;28;20179;-77
2022/06/21 07:19:52;;;;;;;4.93;1.90;;;14.70;99.90;;;;;;5016878;28;20168;-77
2022/06/21 07:22:26;;;;;;;4.93;1.90;;;14.70;1.00;;;;;;5017065;28;20176;-77
2022/06/21 07:25:19;;;;;;;8.23;1.93;;;14.80;99.90;;;;;;5040523;23;20696;-72
2022/06/21 07:27:47;;;;;;;4.63;1.97;;;14.90;99.90;;;;;;5033951;28;20157;-72
2022/06/21 07:30:16;;;;;;;7.10;1.70;;;15.00;99.90;;;;;;5034229;28;20582;-73
2022/06/21 07:33:05;;;;;;;5.77;1.77;;;15.00;99.90;;;;;;5033660;28;20198;-73
2022/06/21 07:35:36;;;;;;;3.40;1.37;;;15.10;1.00;;;;;;5015858;28;20557;-72
2022/06/21 07:38:19;;;;;;;2.07;1.60;;;15.20;1.00;;;;;;5034015;28;20206;-72
2022/06/21 07:40:50;;;;;;;3.13;1.70;;;15.30;1.00;;;;;;5034289;28;20211;-72
2022/06/21 07:43:39;;;;;;;4.93;1.60;;;15.40;1.00;;;;;;5033789;28;20161;-73
2022/06/21 07:46:07;;;;;;;3.73;1.53;;;15.50;1.00;;;;;;5033814;28;20248;-72
2022/06/21 07:48:41;;;;;;;4.97;1.70;;;15.60;1.00;;;;;;5033831;28;20634;-72
2022/06/21 07:51:33;;;;;;;3.73;1.60;;;15.70;1.00;;;;;;5033943;28;20544;-72
2022/06/21 07:54:06;;;;;;;3.77;1.63;;;15.80;99.90;;;;;;5016192;28;20211;-72
2022/06/21 07:56:34;;;;;;;7.33;1.50;;;15.90;99.90;;;;;;5016152;28;20261;-72
2022/06/21 07:59:38;;;;;;;4.83;1.87;;;15.90;1.00;;;;;;5033868;28;20164;-73
2022/06/21 08:07:47;;;;;;;2.73;1.60;;;16.30;1.00;;;;;;5033951;28;20219;-72
2022/06/21 08:10:22;;;;;;;2.93;1.30;;;16.30;1.00;;;;;;5015900;28;20176;-73
2022/06/21 08:12:49;;;;;;;4.73;1.67;;;16.40;1.00;;;;;;5033704;28;20238;-73
2022/06/21 08:15:15;;;;;;;3.60;1.43;;;16.50;1.00;;;;;;5033188;28;20235;-73
2022/06/21 08:18:02;;;;;;;2.10;1.33;;;16.50;1.00;;;;;;5033354;28;20722;-71
2022/06/21 08:20:36;;;;;;;3.83;1.37;;;16.50;1.00;;;;;;5033321;28;20168;-73
2022/06/21 08:23:11;;;;;;;4.13;1.50;;;16.60;99.90;;;;;;5033979;28;20678;-73
2022/06/21 08:26:05;;;;;;;4.27;1.43;;;16.70;99.90;;;;;;5033039;28;20269;-73
2022/06/21 08:28:40;;;;;;;1.67;1.30;;;16.70;99.90;;;;;;5015469;28;20173;-73
2022/06/21 08:31:31;;;;;;;4.33;1.60;;;16.80;99.90;;;;;;5033149;28;20160;-73
2022/06/21 08:34:03;;;;;;;2.67;1.40;;;16.90;1.00;;;;;;5032961;28;20200;-73
2022/06/21 08:36:32;;;;;;;3.70;1.70;;;17.00;1.00;;;;;;5033097;28;20148;-72
2022/06/21 08:39:09;;;;;;;4.73;1.30;;;17.20;1.00;;;;;;5033404;28;20176;-71
2022/06/21 08:42:04;;;;;;;3.63;1.63;;;17.40;1.00;;;;;;5015348;28;20160;-73
2022/06/21 08:45:40;;;;;;;1.90;1.23;;;17.50;99.90;;;;;;5015265;28;20196;-72
2022/06/21 08:48:17;;;;;;;3.83;1.30;;;17.50;99.90;;;;;;5032662;28;20190;-72
2022/06/21 08:51:03;;;;;;;3.70;1.50;;;17.70;99.90;;;;;;5015180;28;20176;-71
2022/06/21 08:53:51;;;;;;;3.40;1.60;;;17.70;1.00;;;;;;5015787;28;20168;-74
2022/06/21 08:56:28;;;;;;;6.40;1.77;;;17.70;1.00;;;;;;4972013;28;20527;-73
2022/06/21 08:59:08;;;;;;;4.20;1.20;;;17.80;99.90;;;;;;5037110;28;20186;-73
2022/06/21 09:01:56;;;;;;;2.90;1.40;;;17.90;1.00;;;;;;5037339;28;20214;-73
2022/06/21 09:04:28;;;;;;;1.80;1.33;;;18.00;1.00;;;;;;5037328;28;20202;-73
2022/06/21 09:07:06;;;;;;;2.37;1.47;;;18.10;99.90;;;;;;5019178;28;20178;-73
2022/06/21 09:09:48;;;;;;;1.90;1.40;;;18.10;1.00;;;;;;5037067;28;20168;-73
2022/06/21 09:12:47;;;;;;;4.43;1.63;;;18.30;1.00;;;;;;5018866;28;20172;-73
2022/06/21 09:15:24;;;;;;;5.37;1.47;;;18.30;1.00;;;;;;5036661;28;20244;-75
2022/06/21 09:18:35;;;;;;;4.93;1.70;;;18.40;1.00;;;;;;5036653;28;20160;-73
2022/06/21 09:21:10;;;;;;;4.90;1.63;;;18.30;1.00;;;;;;5036627;28;20164;-73
2022/06/21 09:23:56;;;;;;;9.27;2.10;;;18.30;1.00;;;;;;5018671;28;20266;-73
2022/06/21 09:26:32;;;;;;;5.43;1.80;;;18.40;1.00;;;;;;5018734;28;20179;-73
2022/06/21 09:29:29;;;;;;;2.67;1.60;;;18.50;99.90;;;;;;5018697;28;20180;-73
2022/06/21 09:32:06;;;;;;;5.97;1.43;;;18.50;1.00;;;;;;5036428;28;20177;-73
2022/06/21 09:34:36;;;;;;;3.73;1.17;;;18.60;99.90;;;;;;5036223;28;20258;-73
2022/06/21 09:37:13;;;;;;;8.60;1.63;;;18.70;1.00;;;;;;5018483;28;20173;-73
2022/06/21 09:40:06;;;;;;;3.53;1.50;;;18.80;1.00;;;;;;5018429;28;20176;-73
2022/06/21 09:42:39;;;;;;;5.30;1.70;;;18.70;20.00;;;;;;5036209;28;20164;-73
2022/06/21 09:45:27;;;;;;;5.70;1.60;;;18.90;16.60;;;;;;5018372;28;20200;-73
2022/06/21 09:47:58;;;;;;;2.43;1.43;;;19.00;13.00;;;;;;5018314;28;20180;-73
2022/06/21 09:50:46;;;;;;;3.00;1.50;;;19.00;18.60;;;;;;5036085;28;20188;-73
2022/06/21 09:53:38;;;;;;;3.90;1.73;;;18.90;59.60;;;;;;5036154;28;20623;-73
2022/06/21 09:56:23;;;;;;;4.47;1.50;;;19.00;99.90;;;;;;5018281;28;20184;-72
2022/06/21 09:59:19;;;;;;;3.73;1.27;;;19.20;1.00;;;;;;5035810;28;20168;-73
2022/06/21 10:02:08;;;;;;;1.80;1.30;;;19.30;1.00;;;;;;5036135;28;20496;-73
2022/06/21 10:05:04;;;;;;;4.53;1.47;;;19.40;1.00;;;;;;5035899;28;20200;-73
2022/06/21 10:07:45;;;;;;;5.20;1.53;;;19.50;1.00;;;;;;5035900;28;20164;-73
2022/06/21 10:10:40;;;;;;;2.83;1.17;;;19.60;99.90;;;;;;5035949;28;20166;-73
2022/06/21 10:13:35;;;;;;;3.57;1.10;;;19.70;99.90;;;;;;5035950;28;20184;-73
2022/06/21 10:16:39;;;;;;;3.73;1.00;;;19.70;1.00;;;;;;5035549;28;20543;-73
2022/06/21 10:19:31;;;;;;;4.17;1.13;;;19.70;1.00;;;;;;5017500;28;20230;-73
2022/06/21 10:22:18;;;;;;;2.63;1.10;;;19.90;67.30;;;;;;5035633;28;20242;-73
2022/06/21 10:25:17;;;;;;;2.67;0.90;;;19.90;1.00;;;;;;5035318;28;20215;-73
2022/06/21 10:28:03;;;;;;;2.17;1.00;;;20.00;1.00;;;;;;5035317;28;20153;-72
2022/06/21 10:30:54;;;;;;;3.40;1.20;;;19.90;1.00;;;;;;5017630;28;20164;-72
2022/06/21 10:33:49;;;;;;;1.57;1.00;;;20.10;1.00;;;;;;5035530;28;20661;-73
2022/06/21 10:36:47;;;;;;;5.20;1.60;;;20.10;99.90;;;;;;5035148;28;20172;-73
2022/06/21 10:39:36;;;;;;;2.10;1.03;;;20.30;1.00;;;;;;5035135;28;20163;-71
2022/06/21 10:45:11;;;;;;;2.70;1.10;;;20.60;1.00;;;;;;5035121;28;20210;-73
2022/06/21 10:47:45;;;;;;;2.30;1.00;;;20.60;99.90;;;;;;5017363;28;20553;-73
2022/06/21 10:50:20;;;;;;;1.97;0.90;;;20.50;99.90;;;;;;5035609;28;20341;-73
2022/06/21 10:53:18;;;;;;;2.27;1.07;;;20.70;1.00;;;;;;5017069;28;20255;-73
2022/06/21 10:58:59;;;;;;;3.47;1.13;;;20.90;1.00;;;;;;5018914;28;20184;-73
2022/06/21 11:02:04;;;;;;;3.93;1.30;;;20.90;1.00;;;;;;5017194;28;20597;-74
2022/06/21 11:04:42;;;;;;;7.53;1.60;;;21.00;1.00;;;;;;4946964;28;20294;-74
2022/06/21 11:07:24;;;;;;;2.57;1.13;;;21.00;99.90;;;;;;5034616;28;20611;-74
2022/06/21 11:10:07;;;;;;;2.57;1.37;;;20.90;99.90;;;;;;5034559;28;20207;-73
2022/06/21 11:15:30;;;;;;;4.93;1.50;;;21.10;1.00;;;;;;5034573;28;20759;-74
2022/06/21 11:18:17;;;;;;;3.93;1.30;;;21.20;1.00;;;;;;5016086;28;20238;-74
2022/06/21 11:21:23;;;;;;;2.20;0.83;;;21.20;1.00;;;;;;5034789;28;20320;-73
2022/06/21 11:23:52;;;;;;;4.67;1.47;;;21.20;1.00;;;;;;5034141;28;20241;-73
2022/06/21 11:26:49;;;;;;;1.13;1.00;;;21.30;99.90;;;;;;5034338;28;20161;-73
2022/06/21 11:29:21;;;;;;;2.50;1.30;;;21.20;1.00;;;;;;5034138;28;20159;-74
2022/06/21 11:31:57;;;;;;;1.70;1.10;;;21.20;99.90;;;;;;5034346;28;20243;-73
2022/06/21 11:34:39;;;;;;;7.03;1.53;;;21.20;99.90;;;;;;5034138;28;20227;-74
2022/06/21 11:37:37;;;;;;;3.17;1.10;;;21.10;99.90;;;;;;5033945;28;20149;-74
2022/06/21 11:40:35;;;;;;;2.23;1.33;;;21.10;99.90;;;;;;5034206;28;20153;-74
2022/06/21 11:43:04;;;;;;;2.33;1.30;;;21.00;99.90;;;;;;5034025;28;20157;-74
2022/06/21 11:45:30;;;;;;;2.40;1.20;;;21.00;99.90;;;;;;5033705;28;20203;-74
2022/06/21 11:48:03;;;;;;;3.57;1.30;;;21.00;99.90;;;;;;5033761;28;20255;-74
2022/06/21 11:50:49;;;;;;;2.73;1.23;;;20.90;99.90;;;;;;5033879;28;20164;-74
2022/06/21 11:53:28;;;;;;;1.50;1.03;;;20.90;99.90;;;;;;5015894;28;20196;-74
2022/06/21 11:56:05;;;;;;;3.13;1.20;;;20.80;99.90;;;;;;5015943;28;20557;-74
2022/06/21 11:58:46;;;;;;;1.80;1.00;;;20.80;99.90;;;;;;5033766;28;20175;-73
2022/06/21 12:01:23;;;;;;;1.10;0.97;;;20.80;99.90;;;;;;5033544;28;20169;-74
2022/06/21 12:03:58;;;;;;;4.20;1.17;;;20.90;99.90;;;;;;5015730;28;20701;-74
2022/06/21 12:06:32;;;;;;;3.07;1.43;;;21.00;99.90;;;;;;5033768;28;20545;-74
2022/06/21 12:09:15;;;;;;;3.17;1.20;;;21.00;99.90;;;;;;5015768;28;20180;-74
2022/06/21 12:12:09;;;;;;;2.17;1.13;;;21.10;99.90;;;;;;5015616;28;20279;-73
2022/06/21 12:14:54;;;;;;;3.97;1.43;;;21.40;99.90;;;;;;5033449;28;20204;-74
2022/06/21 12:17:27;;;;;;;2.30;1.30;;;21.50;1.00;;;;;;5015483;28;20168;-74
2022/06/21 12:19:56;;;;;;;2.90;1.20;;;21.70;1.00;;;;;;5015577;28;20184;-74
2022/06/21 12:22:38;;;;;;;1.63;1.07;;;21.70;37.00;;;;;;5033504;28;20184;-74
2022/06/21 12:25:04;;;;;;;2.63;1.13;;;21.80;1.00;;;;;;5033116;28;20218;-73
2022/06/21 12:27:30;;;;;;;5.43;1.80;;;21.80;1.00;;;;;;5032776;28;20180;-72
2022/06/21 12:30:01;;;;;;;3.77;1.83;;;21.70;1.00;;;;;;5032842;28;20199;-73
2022/06/21 12:32:28;;;;;;;2.30;1.50;;;21.50;1.00;;;;;;5033076;28;20216;-73
2022/06/21 12:35:11;;;;;;;3.17;1.00;;;21.50;1.00;;;;;;5032880;28;20258;-74
2022/06/21 12:37:49;;;;;;;2.40;1.37;;;21.70;99.90;;;;;;5015301;28;20196;-73
2022/06/21 12:40:36;;;;;;;2.23;1.10;;;21.90;99.90;;;;;;5033246;28;20642;-73
2022/06/21 12:43:22;;;;;;;1.90;1.03;;;22.10;1.00;;;;;;5033041;28;20156;-74
2022/06/21 12:46:27;;;;;;;3.30;1.17;;;22.20;1.00;;;;;;5033111;28;20250;-73
2022/06/21 12:49:27;;;;;;;2.73;1.27;;;22.30;1.00;;;;;;5032773;28;20162;-74
2022/06/21 12:51:59;;;;;;;2.70;1.10;;;22.30;1.00;;;;;;5015088;28;20264;-73
2022/06/21 12:54:45;;;;;;;4.93;1.30;;;22.40;1.00;;;;;;5032733;28;20211;-73
2022/06/21 12:57:18;;;;;;;1.33;0.90;;;22.50;1.00;;;;;;5015060;28;20203;-74
2022/06/21 12:59:59;;;;;;;1.90;0.97;;;22.50;1.00;;;;;;5033013;28;20153;-73
2022/06/21 13:03:03;;;;;;;2.27;1.33;;;22.70;1.00;;;;;;5033121;28;20152;-74
2022/06/21 13:06:07;;;;;;;2.77;1.47;;;22.70;1.00;;;;;;5032861;28;20206;-74
2022/06/21 13:08:51;;;;;;;4.93;1.50;;;22.50;1.00;;;;;;5015222;28;20665;-73
2022/06/21 13:11:47;;;;;;;3.23;1.13;;;22.70;1.00;;;;;;5033225;28;20168;-74
2022/06/21 13:14:45;;;;;;;3.13;1.30;;;22.80;1.00;;;;;;5032545;28;20207;-73
2022/06/21 13:17:34;;;;;;;2.27;1.37;;;23.00;1.00;;;;;;5032929;28;20168;-73
2022/06/21 13:20:31;;;;;;;1.37;1.20;;;23.00;1.00;;;;;;5032951;28;20161;-74
2022/06/21 13:23:23;;;;;;;1.83;1.20;;;22.90;1.00;;;;;;4992196;28;20557;-74
2022/06/21 13:25:55;;;;;;;1.70;1.10;;;22.90;1.00;;;;;;5033674;28;20306;-74
2022/06/21 13:28:51;;;;;;;3.43;1.37;;;23.00;1.00;;;;;;5032518;28;20192;-72
2022/06/21 13:31:40;;;;;;;3.27;1.40;;;23.10;1.00;;;;;;5014799;28;20169;-73
2022/06/21 13:34:23;;;;;;;4.43;1.30;;;23.00;1.00;;;;;;5032646;28;20287;-74
2022/06/21 13:36:52;;;;;;;2.53;1.40;;;23.10;1.00;;;;;;5014692;28;20173;-73
2022/06/21 13:39:36;;;;;;;3.63;1.20;;;23.20;1.00;;;;;;5033066;28;20173;-73
2022/06/21 13:45:03;;;;;;;3.10;1.20;;;23.50;1.00;;;;;;5036082;28;20586;-73
2022/06/21 13:47:48;;;;;;;4.10;1.40;;;23.60;1.00;;;;;;5018588;28;20525;-73
2022/06/21 13:50:31;;;;;;;3.37;1.50;;;23.60;1.00;;;;;;5036080;28;20247;-73
2022/06/21 13:53:22;;;;;;;3.03;1.33;;;23.50;1.00;;;;;;5018006;28;20169;-73
2022/06/21 13:55:57;;;;;;;2.10;1.23;;;23.30;1.00;;;;;;5035506;28;20618;-71
2022/06/21 13:58:37;;;;;;;3.73;1.50;;;23.50;1.00;;;;;;5017499;28;20556;-72
2022/06/21 14:01:26;;;;;;;1.60;1.10;;;23.60;1.00;;;;;;5017511;28;20694;-73
2022/06/21 14:04:03;;;;;;;1.27;1.07;;;23.60;1.00;;;;;;5035135;28;20195;-73
2022/06/21 14:06:32;;;;;;;2.30;1.40;;;24.00;1.00;;;;;;5035582;28;20183;-73
2022/06/21 14:09:21;;;;;;;2.83;1.10;;;24.50;1.00;;;;;;5017490;28;20181;-73
2022/06/21 14:11:56;;;;;;;2.40;1.20;;;24.70;1.00;;;;;;5035606;28;20188;-73